sensor_id;sensor_type;location;lat;lon;timestamp;pressure;altitude;pressure_sealevel;temperature;humidity
67434;BME280;54305;47.950;6.572;2023-10-09T00:00:31;95072.94;;;15.81;100.00
67434;BME280;54305;47.950;6.572;2023-10-09T00:03:16;95068.22;;;15.76;100.00
67434;BME280;54305;47.950;6.572;2023-10-09T00:05:42;95066.00;;;15.88;100.00
67434;BME280;54305;47.950;6.572;2023-10-09T00:08:19;95058.03;;;15.96;100.00
67434;BME280;54305;47.950;6.572;2023-10-09T00:10:58;95059.44;;;15.84;100.00
67434;BME280;54305;47.950;6.572;2023-10-09T00:13:41;95063.41;;;15.80;100.00
67434;BME280;54305;47.950;6.572;2023-10-09T00:16:23;95069.00;;;15.77;100.00
67434;BME280;54305;47.950;6.572;2023-10-09T00:18:49;95062.13;;;15.76;100.00
67434;BME280;54305;47.950;6.572;2023-10-09T00:21:18;95051.88;;;15.89;100.00
67434;BME280;54305;47.950;6.572;2023-10-09T00:23:48;95050.88;;;15.90;100.00
67434;BME280;54305;47.950;6.572;2023-10-09T00:26:24;95050.34;;;15.94;100.00
67434;BME280;54305;47.950;6.572;2023-10-09T00:28:50;95042.84;;;16.06;100.00
67434;BME280;54305;47.950;6.572;2023-10-09T00:31:16;95043.78;;;16.13;100.00
67434;BME280;54305;47.950;6.572;2023-10-09T00:33:51;95045.47;;;16.06;100.00
67434;BME280;54305;47.950;6.572;2023-10-09T00:36:17;95047.19;;;15.99;100.00
67434;BME280;54305;47.950;6.572;2023-10-09T00:38:45;95045.44;;;15.91;100.00
67434;BME280;54305;47.950;6.572;2023-10-09T00:41:13;95045.66;;;15.82;100.00
67434;BME280;54305;47.950;6.572;2023-10-09T00:43:45;95050.63;;;15.77;100.00
67434;BME280;54305;47.950;6.572;2023-10-09T00:46:10;95047.19;;;15.76;100.00
67434;BME280;54305;47.950;6.572;2023-10-09T00:48:52;95043.75;;;15.76;100.00
67434;BME280;54305;47.950;6.572;2023-10-09T00:51:18;95048.28;;;15.82;100.00
67434;BME280;54305;47.950;6.572;2023-10-09T00:53:56;95048.28;;;15.82;100.00
67434;BME280;54305;47.950;6.572;2023-10-09T00:56:40;95044.03;;;15.81;100.00
67434;BME280;54305;47.950;6.572;2023-10-09T00:59:08;95036.72;;;15.91;100.00
67434;BME280;54305;47.950;6.572;2023-10-09T01:01:39;95043.31;;;15.87;100.00
67434;BME280;54305;47.950;6.572;2023-10-09T01:04:13;95041.13;;;15.76;100.00
67434;BME280;54305;47.950;6.572;2023-10-09T01:06:46;95035.28;;;15.66;100.00
67434;BME280;54305;47.950;6.572;2023-10-09T01:09:29;95033.66;;;15.65;100.00
67434;BME280;54305;47.950;6.572;2023-10-09T01:12:01;95039.50;;;15.75;100.00
67434;BME280;54305;47.950;6.572;2023-10-09T01:14:26;95044.50;;;15.62;100.00
67434;BME280;54305;47.950;6.572;2023-10-09T01:16:51;95042.28;;;15.51;100.00
67434;BME280;54305;47.950;6.572;2023-10-09T01:19:19;95037.25;;;15.41;100.00
67434;BME280;54305;47.950;6.572;2023-10-09T01:21:55;95031.06;;;15.57;100.00
67434;BME280;54305;47.950;6.572;2023-10-09T01:24:27;95027.09;;;15.61;100.00
67434;BME280;54305;47.950;6.572;2023-10-09T01:26:56;95037.63;;;15.61;100.00
67434;BME280;54305;47.950;6.572;2023-10-09T01:29:24;95028.53;;;15.49;100.00
67434;BME280;54305;47.950;6.572;2023-10-09T01:31:53;95030.34;;;15.40;100.00
67434;BME280;54305;47.950;6.572;2023-10-09T01:34:26;95027.50;;;15.19;100.00
67434;BME280;54305;47.950;6.572;2023-10-09T01:37:11;95037.84;;;15.13;100.00
67434;BME280;54305;47.950;6.572;2023-10-09T01:39:42;95027.72;;;15.10;100.00
67434;BME280;54305;47.950;6.572;2023-10-09T01:42:10;95032.00;;;15.03;100.00
67434;BME280;54305;47.950;6.572;2023-10-09T01:44:35;95030.44;;;15.16;100.00
67434;BME280;54305;47.950;6.572;2023-10-09T01:47:04;95035.84;;;15.23;100.00
67434;BME280;54305;47.950;6.572;2023-10-09T01:49:33;95033.34;;;15.29;100.00
67434;BME280;54305;47.950;6.572;2023-10-09T01:52:00;95033.22;;;15.23;100.00
67434;BME280;54305;47.950;6.572;2023-10-09T01:54:36;95032.44;;;15.14;100.00
67434;BME280;54305;47.950;6.572;2023-10-09T01:57:08;95028.38;;;15.04;100.00
67434;BME280;54305;47.950;6.572;2023-10-09T01:59:40;95028.09;;;14.99;100.00
67434;BME280;54305;47.950;6.572;2023-10-09T02:02:11;95034.94;;;15.08;100.00
67434;BME280;54305;47.950;6.572;2023-10-09T02:04:51;95028.38;;;15.04;100.00
67434;BME280;54305;47.950;6.572;2023-10-09T02:07:17;95024.03;;;15.19;100.00
67434;BME280;54305;47.950;6.572;2023-10-09T02:09:48;95027.25;;;15.37;100.00
67434;BME280;54305;47.950;6.572;2023-10-09T02:12:13;95023.19;;;15.34;100.00
67434;BME280;54305;47.950;6.572;2023-10-09T02:14:38;95026.00;;;15.25;100.00
67434;BME280;54305;47.950;6.572;2023-10-09T02:17:07;95029.00;;;15.14;100.00
67434;BME280;54305;47.950;6.572;2023-10-09T02:19:37;95023.44;;;15.09;100.00
67434;BME280;54305;47.950;6.572;2023-10-09T02:22:05;95027.03;;;15.16;100.00
67434;BME280;54305;47.950;6.572;2023-10-09T02:24:39;95025.63;;;15.28;100.00
67434;BME280;54305;47.950;6.572;2023-10-09T02:27:13;95020.06;;;15.31;100.00
67434;BME280;54305;47.950;6.572;2023-10-09T02:29:45;95021.38;;;15.35;100.00
67434;BME280;54305;47.950;6.572;2023-10-09T02:32:12;95024.00;;;15.27;100.00
67434;BME280;54305;47.950;6.572;2023-10-09T02:34:50;95018.44;;;15.30;100.00
67434;BME280;54305;47.950;6.572;2023-10-09T02:37:18;95022.50;;;15.32;100.00
67434;BME280;54305;47.950;6.572;2023-10-09T02:39:48;95016.88;;;15.13;100.00
67434;BME280;54305;47.950;6.572;2023-10-09T02:42:13;95016.72;;;15.06;100.00
67434;BME280;54305;47.950;6.572;2023-10-09T02:44:39;95013.94;;;15.08;100.00
67434;BME280;54305;47.950;6.572;2023-10-09T02:47:05;95007.06;;;15.07;100.00
67434;BME280;54305;47.950;6.572;2023-10-09T02:49:37;95012.00;;;15.02;100.00
67434;BME280;54305;47.950;6.572;2023-10-09T02:52:04;95006.09;;;15.00;100.00
67434;BME280;54305;47.950;6.572;2023-10-09T02:54:33;95002.22;;;14.96;100.00
67434;BME280;54305;47.950;6.572;2023-10-09T02:57:03;95007.41;;;15.04;100.00
67434;BME280;54305;47.950;6.572;2023-10-09T02:59:32;95006.00;;;14.93;100.00
67434;BME280;54305;47.950;6.572;2023-10-09T03:01:57;95011.72;;;14.97;100.00
67434;BME280;54305;47.950;6.572;2023-10-09T03:04:27;95002.16;;;15.04;100.00
67434;BME280;54305;47.950;6.572;2023-10-09T03:06:56;94999.91;;;14.93;100.00
67434;BME280;54305;47.950;6.572;2023-10-09T03:09:22;95006.59;;;15.03;100.00
67434;BME280;54305;47.950;6.572;2023-10-09T03:11:54;95014.50;;;15.26;100.00
67434;BME280;54305;47.950;6.572;2023-10-09T03:14:21;95006.94;;;15.31;100.00
67434;BME280;54305;47.950;6.572;2023-10-09T03:16:46;95004.31;;;15.31;100.00
67434;BME280;54305;47.950;6.572;2023-10-09T03:19:14;95000.09;;;15.22;100.00
67434;BME280;54305;47.950;6.572;2023-10-09T03:21:39;95006.03;;;15.16;100.00
67434;BME280;54305;47.950;6.572;2023-10-09T03:24:04;95004.41;;;15.15;100.00
67434;BME280;54305;47.950;6.572;2023-10-09T03:26:30;95000.78;;;15.16;100.00
67434;BME280;54305;47.950;6.572;2023-10-09T03:28:56;95004.41;;;15.15;100.00
67434;BME280;54305;47.950;6.572;2023-10-09T03:31:24;95013.94;;;15.08;100.00
67434;BME280;54305;47.950;6.572;2023-10-09T03:33:49;95005.16;;;14.93;100.00
67434;BME280;54305;47.950;6.572;2023-10-09T03:36:14;95009.13;;;14.89;100.00
67434;BME280;54305;47.950;6.572;2023-10-09T03:38:41;95002.09;;;14.81;100.00
67434;BME280;54305;47.950;6.572;2023-10-09T03:41:07;95012.72;;;14.88;100.00
67434;BME280;54305;47.950;6.572;2023-10-09T03:43:37;95001.50;;;15.10;100.00
67434;BME280;54305;47.950;6.572;2023-10-09T03:46:08;95006.97;;;15.23;100.00
67434;BME280;54305;47.950;6.572;2023-10-09T03:48:40;95005.34;;;15.22;100.00
67434;BME280;54305;47.950;6.572;2023-10-09T03:51:08;95013.06;;;15.23;100.00
67434;BME280;54305;47.950;6.572;2023-10-09T03:53:36;95006.63;;;15.26;100.00
67434;BME280;54305;47.950;6.572;2023-10-09T03:56:03;95013.19;;;15.30;100.00
67434;BME280;54305;47.950;6.572;2023-10-09T03:58:37;95014.81;;;15.31;100.00
67434;BME280;54305;47.950;6.572;2023-10-09T04:01:07;95015.13;;;15.28;100.00
67434;BME280;54305;47.950;6.572;2023-10-09T04:03:32;95013.22;;;15.22;100.00
67434;BME280;54305;47.950;6.572;2023-10-09T04:06:00;95010.00;;;15.12;100.00
67434;BME280;54305;47.950;6.572;2023-10-09T04:08:26;95008.38;;;15.11;100.00
67434;BME280;54305;47.950;6.572;2023-10-09T04:10:55;95005.63;;;15.35;100.00
67434;BME280;54305;47.950;6.572;2023-10-09T04:13:27;95005.94;;;15.32;100.00
67434;BME280;54305;47.950;6.572;2023-10-09T04:16:00;95002.00;;;15.36;100.00
67434;BME280;54305;47.950;6.572;2023-10-09T04:18:34;95004.81;;;15.34;100.00
67434;BME280;54305;47.950;6.572;2023-10-09T04:21:03;95006.44;;;15.35;100.00
67434;BME280;54305;47.950;6.572;2023-10-09T04:23:44;95004.88;;;15.49;100.00
67434;BME280;54305;47.950;6.572;2023-10-09T04:26:25;94998.06;;;15.40;100.00
67434;BME280;54305;47.950;6.572;2023-10-09T04:28:50;94992.56;;;15.49;100.00
67434;BME280;54305;47.950;6.572;2023-10-09T04:31:18;94998.22;;;15.61;100.00
67434;BME280;54305;47.950;6.572;2023-10-09T04:33:46;94992.97;;;15.61;100.00
67434;BME280;54305;47.950;6.572;2023-10-09T04:36:31;94997.22;;;15.62;100.00
67434;BME280;54305;47.950;6.572;2023-10-09T04:39:11;94991.03;;;15.77;100.00
67434;BME280;54305;47.950;6.572;2023-10-09T04:41:36;94995.19;;;15.72;100.00
67434;BME280;54305;47.950;6.572;2023-10-09T04:44:07;94996.44;;;15.39;100.00
67434;BME280;54305;47.950;6.572;2023-10-09T04:46:48;95005.03;;;15.17;100.00
67434;BME280;54305;47.950;6.572;2023-10-09T04:49:33;95002.50;;;15.01;100.00
67434;BME280;54305;47.950;6.572;2023-10-09T04:52:14;95007.94;;;14.91;100.00
67434;BME280;54305;47.950;6.572;2023-10-09T04:55:05;95009.50;;;14.78;100.00
67434;BME280;54305;47.950;6.572;2023-10-09T04:57:31;95002.94;;;14.82;100.00
67434;BME280;54305;47.950;6.572;2023-10-09T05:00:04;95002.25;;;14.88;100.00
67434;BME280;54305;47.950;6.572;2023-10-09T05:02:32;95010.34;;;14.70;100.00
67434;BME280;54305;47.950;6.572;2023-10-09T05:05:02;95007.59;;;14.56;100.00
67434;BME280;54305;47.950;6.572;2023-10-09T05:08:03;95015.34;;;14.41;100.00
67434;BME280;54305;47.950;6.572;2023-10-09T05:10:44;95015.50;;;14.48;100.00
67434;BME280;54305;47.950;6.572;2023-10-09T05:13:30;95020.38;;;14.51;100.00
67434;BME280;54305;47.950;6.572;2023-10-09T05:16:21;95013.19;;;14.53;100.00
67434;BME280;54305;47.950;6.572;2023-10-09T05:18:47;95019.59;;;14.50;100.00
67434;BME280;54305;47.950;6.572;2023-10-09T05:21:29;95025.00;;;14.41;100.00
67434;BME280;54305;47.950;6.572;2023-10-09T05:23:55;95026.66;;;14.26;100.00
67434;BME280;54305;47.950;6.572;2023-10-09T05:29:10;95023.38;;;14.32;100.00
67434;BME280;54305;47.950;6.572;2023-10-09T05:31:47;95022.75;;;14.22;100.00
67434;BME280;54305;47.950;6.572;2023-10-09T05:34:50;95026.84;;;14.16;100.00
67434;BME280;54305;47.950;6.572;2023-10-09T05:40:05;95026.31;;;14.13;100.00
67434;BME280;54305;47.950;6.572;2023-10-09T05:42:43;95027.63;;;14.17;100.00
67434;BME280;54305;47.950;6.572;2023-10-09T05:45:09;95029.28;;;14.02;100.00
67434;BME280;54305;47.950;6.572;2023-10-09T05:47:46;95031.41;;;13.90;100.00
67434;BME280;54305;47.950;6.572;2023-10-09T05:50:22;95037.81;;;13.80;100.00
67434;BME280;54305;47.950;6.572;2023-10-09T05:52:48;95035.84;;;13.74;100.00
67434;BME280;54305;47.950;6.572;2023-10-09T05:55:16;95036.19;;;13.71;100.00
67434;BME280;54305;47.950;6.572;2023-10-09T05:57:53;95035.19;;;13.80;100.00
67434;BME280;54305;47.950;6.572;2023-10-09T06:00:28;95047.63;;;13.94;100.00
67434;BME280;54305;47.950;6.572;2023-10-09T06:03:12;95034.53;;;14.02;100.00
67434;BME280;54305;47.950;6.572;2023-10-09T06:05:43;95038.81;;;13.95;100.00
67434;BME280;54305;47.950;6.572;2023-10-09T06:08:24;95040.25;;;13.89;100.00
67434;BME280;54305;47.950;6.572;2023-10-09T06:11:10;95038.78;;;13.79;100.00
67434;BME280;54305;47.950;6.572;2023-10-09T06:13:55;95044.19;;;13.85;100.00
67434;BME280;54305;47.950;6.572;2023-10-09T06:16:37;95054.81;;;13.92;100.00
67434;BME280;54305;47.950;6.572;2023-10-09T06:19:21;95049.41;;;14.17;100.00
67434;BME280;54305;47.950;6.572;2023-10-09T06:22:08;95050.59;;;14.23;100.00
67434;BME280;54305;47.950;6.572;2023-10-09T06:24:51;95049.63;;;14.24;100.00
67434;BME280;54305;47.950;6.572;2023-10-09T06:27:20;95050.56;;;14.31;100.00
67434;BME280;54305;47.950;6.572;2023-10-09T06:29:55;95055.28;;;14.43;100.00
67434;BME280;54305;47.950;6.572;2023-10-09T06:32:41;95062.97;;;14.61;100.00
67434;BME280;54305;47.950;6.572;2023-10-09T06:35:15;95063.94;;;14.68;100.00
67434;BME280;54305;47.950;6.572;2023-10-09T06:37:58;95067.25;;;14.62;100.00
67434;BME280;54305;47.950;6.572;2023-10-09T06:40:36;95065.94;;;14.58;100.00
67434;BME280;54305;47.950;6.572;2023-10-09T06:43:05;95076.72;;;14.63;100.00
67434;BME280;54305;47.950;6.572;2023-10-09T06:45:45;95078.00;;;14.75;100.00
67434;BME280;54305;47.950;6.572;2023-10-09T06:48:11;95077.69;;;14.70;100.00
67434;BME280;54305;47.950;6.572;2023-10-09T06:51:02;95075.66;;;14.88;100.00
67434;BME280;54305;47.950;6.572;2023-10-09T06:53:46;95082.47;;;15.13;100.00
67434;BME280;54305;47.950;6.572;2023-10-09T06:56:17;95087.31;;;15.24;100.00
67434;BME280;54305;47.950;6.572;2023-10-09T06:58:55;95082.72;;;15.34;100.00
67434;BME280;54305;47.950;6.572;2023-10-09T07:01:20;95081.06;;;15.41;100.00
67434;BME280;54305;47.950;6.572;2023-10-09T07:04:04;95095.47;;;15.45;100.00
67434;BME280;54305;47.950;6.572;2023-10-09T07:07:04;95089.22;;;15.46;100.00
67434;BME280;54305;47.950;6.572;2023-10-09T07:09:35;95097.94;;;15.46;100.00
67434;BME280;54305;47.950;6.572;2023-10-09T07:12:29;95099.34;;;15.57;100.00
67434;BME280;54305;47.950;6.572;2023-10-09T07:14:58;95093.06;;;15.66;100.00
67434;BME280;54305;47.950;6.572;2023-10-09T07:17:26;95093.19;;;15.72;100.00
67434;BME280;54305;47.950;6.572;2023-10-09T07:20:09;95091.56;;;15.94;100.00
67434;BME280;54305;47.950;6.572;2023-10-09T07:22:54;95100.06;;;16.18;100.00
67434;BME280;54305;47.950;6.572;2023-10-09T07:25:38;95095.03;;;16.54;100.00
67434;BME280;54305;47.950;6.572;2023-10-09T07:28:08;95098.19;;;16.86;100.00
67434;BME280;54305;47.950;6.572;2023-10-09T07:30:46;95093.63;;;17.24;100.00
67434;BME280;54305;47.950;6.572;2023-10-09T07:33:11;95098.13;;;17.59;100.00
67434;BME280;54305;47.950;6.572;2023-10-09T07:35:46;95097.41;;;17.65;100.00
67434;BME280;54305;47.950;6.572;2023-10-09T07:38:17;95093.69;;;17.95;100.00
67434;BME280;54305;47.950;6.572;2023-10-09T07:40:49;95095.19;;;18.25;100.00
67434;BME280;54305;47.950;6.572;2023-10-09T07:43:41;95097.22;;;18.44;100.00
67434;BME280;54305;47.950;6.572;2023-10-09T07:46:10;95093.78;;;18.71;100.00
67434;BME280;54305;47.950;6.572;2023-10-09T07:48:58;95100.00;;;18.91;100.00
67434;BME280;54305;47.950;6.572;2023-10-09T07:51:26;95094.72;;;19.18;100.00
67434;BME280;54305;47.950;6.572;2023-10-09T07:53:57;95096.88;;;19.36;100.00
67434;BME280;54305;47.950;6.572;2023-10-09T07:56:32;95092.53;;;19.69;100.00
67434;BME280;54305;47.950;6.572;2023-10-09T07:59:03;95089.75;;;19.90;100.00
67434;BME280;54305;47.950;6.572;2023-10-09T08:01:35;95090.59;;;20.03;100.00
67434;BME280;54305;47.950;6.572;2023-10-09T08:04:01;95088.44;;;20.27;100.00
67434;BME280;54305;47.950;6.572;2023-10-09T08:06:39;95084.19;;;20.32;100.00
67434;BME280;54305;47.950;6.572;2023-10-09T08:09:09;95093.09;;;20.31;100.00
67434;BME280;54305;47.950;6.572;2023-10-09T08:11:38;95087.41;;;20.21;100.00
67434;BME280;54305;47.950;6.572;2023-10-09T08:14:25;95089.47;;;20.65;100.00
67434;BME280;54305;47.950;6.572;2023-10-09T08:16:59;95076.03;;;20.79;100.00
67434;BME280;54305;47.950;6.572;2023-10-09T08:19:39;95084.38;;;21.02;95.83
67434;BME280;54305;47.950;6.572;2023-10-09T08:22:26;95078.03;;;21.16;100.00
67434;BME280;54305;47.950;6.572;2023-10-09T08:24:52;95082.47;;;21.35;96.13
67434;BME280;54305;47.950;6.572;2023-10-09T08:29:58;95085.00;;;21.74;89.95
67434;BME280;54305;47.950;6.572;2023-10-09T08:32:42;95084.84;;;21.56;90.69
67434;BME280;54305;47.950;6.572;2023-10-09T08:35:11;95081.56;;;21.67;92.08
67434;BME280;54305;47.950;6.572;2023-10-09T08:37:57;95083.44;;;22.04;97.76
67434;BME280;54305;47.950;6.572;2023-10-09T08:40:36;95073.09;;;22.27;91.27
67434;BME280;54305;47.950;6.572;2023-10-09T08:43:14;95092.22;;;21.41;80.50
67434;BME280;54305;47.950;6.572;2023-10-09T08:48:11;95084.81;;;21.69;76.57
67434;BME280;54305;47.950;6.572;2023-10-09T08:50:40;95089.22;;;21.88;81.75
67434;BME280;54305;47.950;6.572;2023-10-09T08:53:07;95097.72;;;22.03;87.38
67434;BME280;54305;47.950;6.572;2023-10-09T08:55:33;95100.59;;;21.95;89.37
67434;BME280;54305;47.950;6.572;2023-10-09T08:58:01;95098.94;;;22.07;87.11
67434;BME280;54305;47.950;6.572;2023-10-09T09:00:26;95093.56;;;21.76;90.62
67434;BME280;54305;47.950;6.572;2023-10-09T09:02:58;95089.28;;;21.62;89.42
67434;BME280;54305;47.950;6.572;2023-10-09T09:05:25;95083.44;;;21.98;96.50
67434;BME280;54305;47.950;6.572;2023-10-09T09:07:53;95086.03;;;21.73;91.18
67434;BME280;54305;47.950;6.572;2023-10-09T09:10:26;95082.19;;;22.07;91.45
67434;BME280;54305;47.950;6.572;2023-10-09T09:13:00;95073.59;;;22.11;87.34
67434;BME280;54305;47.950;6.572;2023-10-09T09:15:29;95080.66;;;22.24;83.49
67434;BME280;54305;47.950;6.572;2023-10-09T09:18:04;95099.00;;;21.94;81.02
67434;BME280;54305;47.950;6.572;2023-10-09T09:20:42;95077.16;;;21.48;83.55
67434;BME280;54305;47.950;6.572;2023-10-09T09:23:10;95085.00;;;21.68;86.14
67434;BME280;54305;47.950;6.572;2023-10-09T09:25:44;95086.66;;;21.69;87.95
67434;BME280;54305;47.950;6.572;2023-10-09T09:28:10;95081.94;;;21.77;91.96
67434;BME280;54305;47.950;6.572;2023-10-09T09:30:37;95083.78;;;22.14;92.69
67434;BME280;54305;47.950;6.572;2023-10-09T09:33:24;95083.03;;;22.01;80.64
67434;BME280;54305;47.950;6.572;2023-10-09T09:36:09;95084.47;;;22.03;92.83
67434;BME280;54305;47.950;6.572;2023-10-09T09:38:37;95080.59;;;21.99;89.28
67434;BME280;54305;47.950;6.572;2023-10-09T09:41:18;95079.84;;;21.92;85.09
67434;BME280;54305;47.950;6.572;2023-10-09T09:43:53;95087.69;;;22.43;83.87
67434;BME280;54305;47.950;6.572;2023-10-09T09:46:24;95093.19;;;23.21;82.45
67434;BME280;54305;47.950;6.572;2023-10-09T09:49:05;95088.03;;;23.44;78.91
67434;BME280;54305;47.950;6.572;2023-10-09T09:51:50;95083.72;;;23.79;75.90
67434;BME280;54305;47.950;6.572;2023-10-09T09:54:16;95085.72;;;23.84;74.04
67434;BME280;54305;47.950;6.572;2023-10-09T09:56:45;95093.66;;;24.49;67.45
67434;BME280;54305;47.950;6.572;2023-10-09T09:59:20;95100.16;;;24.53;77.28
67434;BME280;54305;47.950;6.572;2023-10-09T10:01:52;95098.81;;;23.49;83.42
67434;BME280;54305;47.950;6.572;2023-10-09T10:04:23;95095.97;;;24.16;79.15
67434;BME280;54305;47.950;6.572;2023-10-09T10:06:49;95101.94;;;24.00;84.24
67434;BME280;54305;47.950;6.572;2023-10-09T10:12:06;95091.44;;;23.69;81.13
67434;BME280;54305;47.950;6.572;2023-10-09T10:14:55;95101.06;;;23.52;86.57
67434;BME280;54305;47.950;6.572;2023-10-09T10:20:29;95092.84;;;25.24;76.57
67434;BME280;54305;47.950;6.572;2023-10-09T10:25:44;95099.81;;;25.02;76.33
67434;BME280;54305;47.950;6.572;2023-10-09T10:28:18;95092.47;;;24.98;76.99
67434;BME280;54305;47.950;6.572;2023-10-09T10:30:53;95091.88;;;25.76;68.64
67434;BME280;54305;47.950;6.572;2023-10-09T10:33:19;95089.28;;;25.42;71.76
67434;BME280;54305;47.950;6.572;2023-10-09T10:35:47;95091.34;;;25.17;78.35
67434;BME280;54305;47.950;6.572;2023-10-09T10:38:38;95083.34;;;25.51;73.89
67434;BME280;54305;47.950;6.572;2023-10-09T10:41:07;95078.16;;;26.52;64.24
67434;BME280;54305;47.950;6.572;2023-10-09T10:43:36;95079.69;;;26.48;69.63
67434;BME280;54305;47.950;6.572;2023-10-09T10:46:17;95077.28;;;27.45;59.62
67434;BME280;54305;47.950;6.572;2023-10-09T10:48:48;95078.28;;;27.06;62.38
67434;BME280;54305;47.950;6.572;2023-10-09T10:51:14;95085.53;;;27.60;63.54
67434;BME280;54305;47.950;6.572;2023-10-09T10:53:53;95084.31;;;27.13;69.47
67434;BME280;54305;47.950;6.572;2023-10-09T10:56:38;95085.28;;;27.62;64.81
67434;BME280;54305;47.950;6.572;2023-10-09T10:59:04;95072.13;;;28.99;58.62
67434;BME280;54305;47.950;6.572;2023-10-09T11:01:30;95075.81;;;27.54;58.63
67434;BME280;54305;47.950;6.572;2023-10-09T11:04:15;95066.44;;;26.69;63.17
67434;BME280;54305;47.950;6.572;2023-10-09T11:06:50;95067.97;;;27.86;62.21
67434;BME280;54305;47.950;6.572;2023-10-09T11:09:16;95078.78;;;28.39;54.63
67434;BME280;54305;47.950;6.572;2023-10-09T11:11:47;95071.75;;;28.59;56.54
67434;BME280;54305;47.950;6.572;2023-10-09T11:14:14;95067.81;;;28.98;49.20
67434;BME280;54305;47.950;6.572;2023-10-09T11:16:39;95072.06;;;29.31;49.02
67434;BME280;54305;47.950;6.572;2023-10-09T11:19:11;95067.84;;;29.03;50.25
67434;BME280;54305;47.950;6.572;2023-10-09T11:21:57;95057.28;;;30.41;48.83
67434;BME280;54305;47.950;6.572;2023-10-09T11:24:28;95058.50;;;28.26;54.01
67434;BME280;54305;47.950;6.572;2023-10-09T11:26:59;95049.88;;;28.19;56.90
67434;BME280;54305;47.950;6.572;2023-10-09T11:29:30;95050.69;;;27.98;53.00
67434;BME280;54305;47.950;6.572;2023-10-09T11:32:08;95041.75;;;29.72;52.24
67434;BME280;54305;47.950;6.572;2023-10-09T11:34:42;95038.22;;;30.43;49.23
67434;BME280;54305;47.950;6.572;2023-10-09T11:37:17;95045.75;;;28.12;58.40
67434;BME280;54305;47.950;6.572;2023-10-09T11:39:58;95036.31;;;28.89;56.33
67434;BME280;54305;47.950;6.572;2023-10-09T11:42:24;95033.34;;;27.41;62.83
67434;BME280;54305;47.950;6.572;2023-10-09T11:45:19;95035.00;;;27.85;62.52
67434;BME280;54305;47.950;6.572;2023-10-09T11:47:48;95034.72;;;28.08;62.87
67434;BME280;54305;47.950;6.572;2023-10-09T11:53:16;95030.50;;;27.69;61.95
67434;BME280;54305;47.950;6.572;2023-10-09T11:56:00;95023.84;;;26.96;64.56
67434;BME280;54305;47.950;6.572;2023-10-09T11:58:25;95027.50;;;26.57;63.99
67434;BME280;54305;47.950;6.572;2023-10-09T12:03:21;95017.25;;;25.93;74.68
67434;BME280;54305;47.950;6.572;2023-10-09T12:05:48;95014.44;;;25.48;78.96
67434;BME280;54305;47.950;6.572;2023-10-09T12:08:14;95002.66;;;25.21;80.60
67434;BME280;54305;47.950;6.572;2023-10-09T12:10:42;95009.63;;;25.11;85.60
67434;BME280;54305;47.950;6.572;2023-10-09T12:13:07;95003.63;;;24.92;89.93
67434;BME280;54305;47.950;6.572;2023-10-09T12:15:33;95002.97;;;24.44;94.90
67434;BME280;54305;47.950;6.572;2023-10-09T12:18:05;95003.72;;;24.10;100.00
67434;BME280;54305;47.950;6.572;2023-10-09T12:20:34;95007.03;;;23.94;100.00
67434;BME280;54305;47.950;6.572;2023-10-09T12:23:00;94998.72;;;23.84;100.00
67434;BME280;54305;47.950;6.572;2023-10-09T12:25:26;94991.97;;;24.29;100.00
67434;BME280;54305;47.950;6.572;2023-10-09T12:27:51;94995.41;;;24.82;100.00
67434;BME280;54305;47.950;6.572;2023-10-09T12:30:22;94987.09;;;25.53;90.10
67434;BME280;54305;47.950;6.572;2023-10-09T12:32:52;94986.13;;;27.52;73.87
67434;BME280;54305;47.950;6.572;2023-10-09T12:35:17;94980.41;;;27.86;70.60
67434;BME280;54305;47.950;6.572;2023-10-09T12:37:43;94978.06;;;28.79;64.17
67434;BME280;54305;47.950;6.572;2023-10-09T12:40:08;94981.38;;;28.33;60.54
67434;BME280;54305;47.950;6.572;2023-10-09T12:42:35;94980.94;;;27.88;60.35
67434;BME280;54305;47.950;6.572;2023-10-09T12:45:01;94978.13;;;28.26;65.45
67434;BME280;54305;47.950;6.572;2023-10-09T12:47:33;94977.38;;;28.62;58.16
67434;BME280;54305;47.950;6.572;2023-10-09T12:49:58;94973.41;;;27.85;59.84
67434;BME280;54305;47.950;6.572;2023-10-09T12:52:24;94976.03;;;27.80;53.03
67434;BME280;54305;47.950;6.572;2023-10-09T12:54:54;94972.00;;;29.35;51.19
67434;BME280;54305;47.950;6.572;2023-10-09T12:57:20;94967.53;;;30.52;45.33
67434;BME280;54305;47.950;6.572;2023-10-09T12:59:45;94971.84;;;30.73;41.18
67434;BME280;54305;47.950;6.572;2023-10-09T13:02:13;94964.03;;;31.86;39.41
67434;BME280;54305;47.950;6.572;2023-10-09T13:04:53;94964.59;;;29.57;38.05
67434;BME280;54305;47.950;6.572;2023-10-09T13:07:18;94960.28;;;28.68;43.92
67434;BME280;54305;47.950;6.572;2023-10-09T13:09:47;94953.41;;;29.80;40.79
67434;BME280;54305;47.950;6.572;2023-10-09T13:12:32;94956.22;;;30.55;40.06
67434;BME280;54305;47.950;6.572;2023-10-09T13:14:57;94953.38;;;29.14;44.62
67434;BME280;54305;47.950;6.572;2023-10-09T13:17:22;94962.47;;;28.13;53.05
67434;BME280;54305;47.950;6.572;2023-10-09T13:19:52;94954.75;;;27.69;50.96
67434;BME280;54305;47.950;6.572;2023-10-09T13:22:17;94955.78;;;27.89;55.34
67434;BME280;54305;47.950;6.572;2023-10-09T13:24:42;94960.66;;;27.71;62.66
67434;BME280;54305;47.950;6.572;2023-10-09T13:27:08;94952.94;;;27.53;61.43
67434;BME280;54305;47.950;6.572;2023-10-09T13:29:35;94959.41;;;26.97;62.46
67434;BME280;54305;47.950;6.572;2023-10-09T13:32:04;94946.47;;;27.49;59.93
67434;BME280;54305;47.950;6.572;2023-10-09T13:34:38;94947.44;;;26.83;49.41
67434;BME280;54305;47.950;6.572;2023-10-09T13:37:09;94940.81;;;27.45;60.38
67434;BME280;54305;47.950;6.572;2023-10-09T13:39:39;94943.50;;;27.45;57.80
67434;BME280;54305;47.950;6.572;2023-10-09T13:42:11;94943.44;;;27.19;55.22
67434;BME280;54305;47.950;6.572;2023-10-09T13:44:36;94937.47;;;27.33;52.77